Time;durP1;ratioP1;P1;durP2;ratioP2;P2;SDS_P1;SDS_P2;PMS_P1;PMS_P2;Temp;Humidity;BMP_temperature;BMP_pressure;BME280_temperature;BME280_humidity;BME280_pressure;Samples;Min_cycle;Max_cycle;Signal;HPM_P1;HPM_P2
2022/09/20 00:00:44;;;;;;;;;;;7.10;99.90;;;;;;5030304;28;19934;-80
2022/09/20 00:03:10;;;;;;;;;;;7.00;99.90;;;;;;5045374;28;19940;-80
2022/09/20 00:05:36;;;;;;;;;;;7.10;99.90;;;;;;5060975;28;20270;-80
2022/09/20 00:08:03;;;;;;;;;;;7.00;99.90;;;;;;5038422;28;19909;-80
2022/09/20 00:10:29;;;;;;;;;;;6.90;99.90;;;;;;5038279;28;19920;-79
2022/09/20 00:12:55;;;;;;;;;;;6.90;99.90;;;;;;5033774;28;20007;-80
2022/09/20 00:15:21;;;;;;;;;;;6.90;99.90;;;;;;5039651;28;20046;-81
2022/09/20 00:17:46;;;;;;;;;;;6.80;99.90;;;;;;5042686;28;19913;-82
2022/09/20 00:20:12;;;;;;;;;;;6.80;99.90;;;;;;5042790;28;19921;-80
2022/09/20 00:22:38;;;;;;;;;;;6.80;99.90;;;;;;5035583;28;19913;-80
2022/09/20 00:25:03;;;;;;;;;;;6.80;99.90;;;;;;5039708;28;19916;-82
2022/09/20 00:27:29;;;;;;;;;;;6.90;99.90;;;;;;5044900;28;19916;-80
2022/09/20 00:29:55;;;;;;;;;;;6.80;99.90;;;;;;5048620;28;19959;-81
2022/09/20 00:32:21;;;;;;;;;;;6.80;99.90;;;;;;5050419;28;19956;-80
2022/09/20 00:37:30;;;;;;;;;;;6.70;99.90;;;;;;5041841;28;20025;-81
2022/09/20 00:39:56;;;;;;;;;;;6.70;99.90;;;;;;5041755;28;19959;-80
2022/09/20 00:42:25;;;;;;;;;;;6.70;99.90;;;;;;5044492;28;19925;-80
2022/09/20 00:44:57;;;;;;;;;;;6.60;99.90;;;;;;5048922;28;19993;-81
2022/09/20 00:47:25;;;;;;;;;;;6.60;99.90;;;;;;5045903;28;19984;-81
2022/09/20 00:49:53;;;;;;;;;;;6.50;99.90;;;;;;5038236;28;19909;-81
2022/09/20 00:52:19;;;;;;;;;;;6.60;99.90;;;;;;5038604;28;20295;-81
2022/09/20 00:54:45;;;;;;;;;;;6.60;99.90;;;;;;5041215;28;20015;-80
2022/09/20 00:57:10;;;;;;;;;;;6.50;99.90;;;;;;5045260;28;19995;-79
2022/09/20 00:59:38;;;;;;;;;;;6.60;99.90;;;;;;5040852;28;19928;-81
2022/09/20 01:02:08;;;;;;;;;;;6.50;99.90;;;;;;5045645;28;19923;-80
2022/09/20 01:04:34;;;;;;;;;;;6.60;99.90;;;;;;5041117;28;19913;-81
2022/09/20 01:07:01;;;;;;;;;;;6.60;99.90;;;;;;5047537;28;20616;-82
2022/09/20 01:09:27;;;;;;;;;;;6.60;99.90;;;;;;5048705;28;19915;-81
2022/09/20 01:11:54;;;;;;;;;;;6.50;99.90;;;;;;5046197;28;20225;-81
2022/09/20 01:14:22;;;;;;;;;;;6.40;99.90;;;;;;5038450;28;19912;-81
2022/09/20 01:16:48;;;;;;;;;;;6.40;99.90;;;;;;5038675;28;19916;-82
2022/09/20 01:19:30;;;;;;;;;;;6.30;99.90;;;;;;5044410;28;19913;-82
2022/09/20 01:21:55;;;;;;;;;;;6.40;99.90;;;;;;5038099;28;20291;-81
2022/09/20 01:24:26;;;;;;;;;;;6.50;99.90;;;;;;5048992;28;19991;-82
2022/09/20 01:26:56;;;;;;;;;;;6.50;99.90;;;;;;5042402;28;19982;-80
2022/09/20 01:29:28;;;;;;;;;;;6.60;99.90;;;;;;5032340;28;19917;-81
2022/09/20 01:31:55;;;;;;;;;;;6.50;99.90;;;;;;5043384;28;19913;-81
2022/09/20 01:34:27;;;;;;;;;;;6.60;99.90;;;;;;5043574;28;19966;-82
2022/09/20 01:37:05;;;;;;;;;;;6.70;99.90;;;;;;5037556;28;20568;-80
2022/09/20 01:39:45;;;;;;;;;;;6.80;99.90;;;;;;5047363;28;19965;-82
2022/09/20 01:42:12;;;;;;;;;;;6.90;99.90;;;;;;5042892;28;19925;-80
2022/09/20 01:44:56;;;;;;;;;;;7.00;99.90;;;;;;5045722;28;20360;-81
2022/09/20 01:47:22;;;;;;;;;;;7.00;99.90;;;;;;5050047;28;19951;-81
2022/09/20 01:50:03;;;;;;;;;;;7.10;99.90;;;;;;5036457;28;19960;-80
2022/09/20 01:52:37;;;;;;;;;;;7.20;99.90;;;;;;5045565;28;19909;-79
2022/09/20 01:55:12;;;;;;;;;;;7.20;99.90;;;;;;5040556;28;20351;-82
2022/09/20 01:57:43;;;;;;;;;;;7.10;99.90;;;;;;5054897;28;19913;-81
2022/09/20 02:00:15;;;;;;;;;;;7.20;99.90;;;;;;5046084;28;19963;-80
2022/09/20 02:02:43;;;;;;;;;;;7.10;99.90;;;;;;5044221;28;19927;-82
2022/09/20 02:05:08;;;;;;;;;;;7.20;99.90;;;;;;5043331;28;20360;-80
2022/09/20 02:07:51;;;;;;;;;;;7.20;99.90;;;;;;5046488;28;19908;-80
2022/09/20 02:10:35;;;;;;;;;;;7.20;99.90;;;;;;5033577;28;19920;-80
2022/09/20 02:13:08;;;;;;;;;;;7.40;99.90;;;;;;5043522;28;19909;-82
2022/09/20 02:15:37;;;;;;;;;;;7.30;99.90;;;;;;5047758;28;19912;-81
2022/09/20 02:18:15;;;;;;;;;;;7.40;99.90;;;;;;5040379;28;19963;-79
2022/09/20 02:20:43;;;;;;;;;;;7.30;99.90;;;;;;5049241;28;20392;-80
2022/09/20 02:23:19;;;;;;;;;;;7.30;99.90;;;;;;5049246;28;19908;-80
2022/09/20 02:26:03;;;;;;;;;;;7.40;99.90;;;;;;5046094;28;20000;-80
2022/09/20 02:28:32;;;;;;;;;;;7.40;99.90;;;;;;5040703;28;19916;-80
2022/09/20 02:30:57;;;;;;;;;;;7.60;99.90;;;;;;5040084;28;20665;-81
2022/09/20 02:33:42;;;;;;;;;;;7.70;99.90;;;;;;5041908;28;19916;-80
2022/09/20 02:36:07;;;;;;;;;;;7.70;99.90;;;;;;5047143;28;19915;-80
2022/09/20 02:38:48;;;;;;;;;;;7.80;99.90;;;;;;5037278;28;19908;-80
2022/09/20 02:41:14;;;;;;;;;;;7.90;99.90;;;;;;5047890;28;19917;-80
2022/09/20 02:43:45;;;;;;;;;;;7.80;99.90;;;;;;5043300;28;19977;-81
2022/09/20 02:46:23;;;;;;;;;;;7.90;99.90;;;;;;5043421;28;19927;-80
2022/09/20 02:49:09;;;;;;;;;;;7.90;99.90;;;;;;5043700;28;19912;-80
2022/09/20 02:51:35;;;;;;;;;;;7.90;99.90;;;;;;5048076;28;19963;-81
2022/09/20 02:54:12;;;;;;;;;;;8.00;99.90;;;;;;5047211;28;19920;-81
2022/09/20 02:57:01;;;;;;;;;;;8.10;99.90;;;;;;5040210;28;19921;-81
2022/09/20 02:59:45;;;;;;;;;;;8.10;99.90;;;;;;5043028;28;20031;-80
2022/09/20 03:02:10;;;;;;;;;;;8.10;99.90;;;;;;5040849;28;19913;-80
2022/09/20 03:04:56;;;;;;;;;;;8.10;99.90;;;;;;5045301;28;20281;-80
2022/09/20 03:07:30;;;;;;;;;;;8.10;99.90;;;;;;5019384;28;20671;-80
2022/09/20 03:10:09;;;;;;;;;;;8.10;99.90;;;;;;5048698;28;19916;-80
2022/09/20 03:12:48;;;;;;;;;;;8.00;99.90;;;;;;5039477;28;19970;-80
2022/09/20 03:15:29;;;;;;;;;;;8.10;99.90;;;;;;5039894;28;20380;-80
2022/09/20 03:17:54;;;;;;;;;;;8.10;99.90;;;;;;5044971;28;19913;-80
2022/09/20 03:20:28;;;;;;;;;;;8.10;99.90;;;;;;5048674;28;19944;-80
2022/09/20 03:23:03;;;;;;;;;;;8.20;99.90;;;;;;5035396;28;19909;-80
2022/09/20 03:25:31;;;;;;;;;;;8.20;99.90;;;;;;5043447;28;19948;-80
2022/09/20 03:28:15;;;;;;;;;;;8.10;99.90;;;;;;5040158;28;19916;-80
2022/09/20 03:30:51;;;;;;;;;;;8.10;99.90;;;;;;5046875;28;19923;-80
2022/09/20 03:33:27;;;;;;;;;;;8.00;99.90;;;;;;5038103;28;20302;-81
2022/09/20 03:36:07;;;;;;;;;;;8.00;99.90;;;;;;5038129;28;20019;-80
2022/09/20 03:38:42;;;;;;;;;;;8.00;99.90;;;;;;5035996;28;19912;-81
2022/09/20 03:41:16;;;;;;;;;;;7.90;99.90;;;;;;5044750;28;19917;-79
2022/09/20 03:43:44;;;;;;;;;;;7.90;99.90;;;;;;5044121;28;19971;-80
2022/09/20 03:46:10;;;;;;;;;;;7.90;99.90;;;;;;5042234;28;19915;-80
2022/09/20 03:49:01;;;;;;;;;;;7.90;99.90;;;;;;5045828;28;19908;-80
2022/09/20 03:51:27;;;;;;;;;;;7.90;99.90;;;;;;5039555;28;20278;-80
2022/09/20 03:53:59;;;;;;;;;;;7.90;99.90;;;;;;5042894;28;20295;-80
2022/09/20 03:56:27;;;;;;;;;;;7.80;99.90;;;;;;5042350;28;19940;-80
2022/09/20 03:59:03;;;;;;;;;;;7.90;99.90;;;;;;5040594;28;19913;-80
2022/09/20 04:01:47;;;;;;;;;;;8.00;99.90;;;;;;5039425;28;19920;-80
2022/09/20 04:04:18;;;;;;;;;;;8.00;99.90;;;;;;5044983;28;19954;-81
2022/09/20 04:07:08;;;;;;;;;;;7.90;99.90;;;;;;5052169;28;19921;-80
2022/09/20 04:09:39;;;;;;;;;;;8.00;99.90;;;;;;5049577;28;19913;-81
2022/09/20 04:12:29;;;;;;;;;;;7.80;99.90;;;;;;5046957;28;19955;-81
2022/09/20 04:15:02;;;;;;;;;;;7.70;99.90;;;;;;5048459;28;19916;-82
2022/09/20 04:17:34;;;;;;;;;;;7.60;99.90;;;;;;5047543;28;20039;-81
2022/09/20 04:20:05;;;;;;;;;;;7.60;99.90;;;;;;5038730;28;19920;-80
2022/09/20 04:22:31;;;;;;;;;;;7.40;99.90;;;;;;5044367;28;19912;-80
2022/09/20 04:25:04;;;;;;;;;;;7.40;99.90;;;;;;5051395;28;19919;-80
2022/09/20 04:27:33;;;;;;;;;;;7.30;99.90;;;;;;5035498;28;20419;-80
2022/09/20 04:30:14;;;;;;;;;;;7.30;99.90;;;;;;5051918;28;19908;-79
2022/09/20 04:33:03;;;;;;;;;;;7.20;99.90;;;;;;5016461;28;19917;-78
2022/09/20 04:38:18;;;;;;;;;;;7.30;99.90;;;;;;5016531;28;20360;-80
2022/09/20 04:40:54;;;;;;;;;;;7.30;99.90;;;;;;5036169;28;20501;-82
2022/09/20 04:43:49;;;;;;;;;;;7.30;99.90;;;;;;5014600;28;19917;-81
2022/09/20 04:46:24;;;;;;;;;;;7.30;99.90;;;;;;4988927;28;20385;-82
2022/09/20 04:49:09;;;;;;;;;;;7.30;99.90;;;;;;5020362;28;19974;-83
2022/09/20 04:51:37;;;;;;;;;;;7.30;99.90;;;;;;5015659;28;19913;-82
2022/09/20 04:54:02;;;;;;;;;;;7.30;99.90;;;;;;5029125;28;19909;-82
2022/09/20 04:56:42;;;;;;;;;;;7.30;99.90;;;;;;5022818;28;19913;-83
2022/09/20 04:59:09;;;;;;;;;;;7.30;99.90;;;;;;5012409;28;19960;-83
2022/09/20 05:01:46;;;;;;;;;;;7.40;99.90;;;;;;5010015;28;19921;-83
2022/09/20 05:04:30;;;;;;;;;;;7.40;99.90;;;;;;5017539;28;19910;-83
2022/09/20 05:06:56;;;;;;;;;;;7.40;99.90;;;;;;5021850;28;19916;-83
2022/09/20 05:09:40;;;;;;;;;;;7.30;99.90;;;;;;5017028;28;19909;-83
2022/09/20 05:12:33;;;;;;;;;;;7.40;99.90;;;;;;5018244;28;19916;-83
2022/09/20 05:15:07;;;;;;;;;;;7.30;99.90;;;;;;5010136;28;19937;-84
2022/09/20 05:17:49;;;;;;;;;;;7.30;99.90;;;;;;5016059;28;19909;-83
2022/09/20 05:20:41;;;;;;;;;;;7.30;99.90;;;;;;5018015;28;19917;-83
2022/09/20 05:23:20;;;;;;;;;;;7.30;99.90;;;;;;5009081;28;19914;-83
2022/09/20 05:26:06;;;;;;;;;;;7.30;99.90;;;;;;5009170;28;19909;-84
2022/09/20 05:28:37;;;;;;;;;;;7.30;99.90;;;;;;5008360;28;19913;-83
2022/09/20 05:31:02;;;;;;;;;;;7.40;99.90;;;;;;5016049;28;19917;-84
2022/09/20 05:33:32;;;;;;;;;;;7.40;99.90;;;;;;5021350;28;19940;-85
2022/09/20 05:36:01;;;;;;;;;;;7.40;99.90;;;;;;5007992;28;19909;-86
2022/09/20 05:38:32;;;;;;;;;;;7.40;99.90;;;;;;5018893;28;19913;-84
2022/09/20 05:40:59;;;;;;;;;;;7.50;99.90;;;;;;5032194;28;20003;-83
2022/09/20 05:43:32;;;;;;;;;;;7.50;99.90;;;;;;5012485;28;19921;-83
2022/09/20 05:46:23;;;;;;;;;;;7.60;99.90;;;;;;5016138;28;19932;-84
2022/09/20 05:49:07;;;;;;;;;;;7.70;99.90;;;;;;5023279;28;19913;-83
2022/09/20 05:51:58;;;;;;;;;;;7.70;99.90;;;;;;5013150;28;19909;-84
2022/09/20 05:54:37;;;;;;;;;;;7.80;99.90;;;;;;5018411;28;20428;-85
2022/09/20 05:57:14;;;;;;;;;;;7.90;99.90;;;;;;5017034;28;19909;-84
2022/09/20 06:00:00;;;;;;;;;;;8.00;99.90;;;;;;5015006;28;19913;-85
2022/09/20 06:02:41;;;;;;;;;;;8.00;99.90;;;;;;5041882;28;20305;-86
2022/09/20 06:05:24;;;;;;;;;;;7.90;99.90;;;;;;5037221;28;20391;-86
2022/09/20 06:08:05;;;;;;;;;;;8.10;99.90;;;;;;5046639;28;19909;-84
2022/09/20 06:10:49;;;;;;;;;;;8.20;99.90;;;;;;5049408;28;19909;-85
2022/09/20 06:13:14;;;;;;;;;;;8.20;99.90;;;;;;5044412;28;19951;-86
2022/09/20 06:15:46;;;;;;;;;;;8.30;99.90;;;;;;5046360;28;20360;-85
2022/09/20 06:18:17;;;;;;;;;;;8.60;99.90;;;;;;5042458;28;19958;-85
2022/09/20 06:20:58;;;;;;;;;;;8.70;99.90;;;;;;5036772;28;19920;-86
2022/09/20 06:23:24;;;;;;;;;;;8.70;99.90;;;;;;5041867;28;19915;-84
2022/09/20 06:25:58;;;;;;;;;;;8.80;99.90;;;;;;5035985;28;20003;-86
2022/09/20 06:28:36;;;;;;;;;;;8.60;99.90;;;;;;5043396;28;19917;-84
2022/09/20 06:31:06;;;;;;;;;;;8.70;99.90;;;;;;5044810;28;19988;-84
2022/09/20 06:33:31;;;;;;;;;;;8.80;99.90;;;;;;5037523;28;19942;-85
2022/09/20 06:41:25;;;;;;;;;;;8.80;99.90;;;;;;5056532;28;19920;-85
2022/09/20 06:41:35;;;;;;;;;;;8.90;99.90;;;;;;5045270;28;19928;-87
2022/09/20 06:44:02;;;;;;;;;;;8.80;99.90;;;;;;5039100;28;19940;-83
2022/09/20 06:46:28;;;;;;;;;;;9.00;99.90;;;;;;5047652;28;20015;-86
2022/09/20 06:48:54;;;;;;;;;;;9.10;99.90;;;;;;5040206;28;19971;-84
2022/09/20 06:51:21;;;;;;;;;;;9.10;99.90;;;;;;5038393;28;20032;-85
2022/09/20 06:53:47;;;;;;;;;;;9.20;99.90;;;;;;5054802;28;19974;-85
2022/09/20 06:56:17;;;;;;;;;;;9.20;99.90;;;;;;5040275;28;19908;-86
2022/09/20 06:58:43;;;;;;;;;;;9.40;99.90;;;;;;5033919;28;19917;-83
2022/09/20 07:01:08;;;;;;;;;;;9.60;99.90;;;;;;5043342;28;19943;-87
2022/09/20 07:03:34;;;;;;;;;;;9.70;99.90;;;;;;5045126;28;19955;-84
2022/09/20 07:05:59;;;;;;;;;;;9.60;99.90;;;;;;5036082;28;20647;-86
2022/09/20 07:08:25;;;;;;;;;;;9.60;99.90;;;;;;5047495;28;19939;-84
2022/09/20 07:10:51;;;;;;;;;;;9.50;99.90;;;;;;5036971;28;19966;-84
2022/09/20 07:13:18;;;;;;;;;;;9.80;99.90;;;;;;5051963;28;19927;-84
2022/09/20 07:15:43;;;;;;;;;;;9.90;99.90;;;;;;5044242;28;19908;-85
2022/09/20 07:18:09;;;;;;;;;;;9.90;99.90;;;;;;5022127;28;19920;-84
2022/09/20 07:20:34;;;;;;;;;;;10.10;99.90;;;;;;5045499;28;19924;-84
2022/09/20 07:23:00;;;;;;;;;;;10.00;99.90;;;;;;5035714;28;20288;-78
2022/09/20 07:25:26;;;;;;;;;;;10.00;99.90;;;;;;5041582;28;19920;-78
2022/09/20 07:27:51;;;;;;;;;;;10.10;99.90;;;;;;5040669;28;19932;-79
2022/09/20 07:30:18;;;;;;;;;;;10.20;99.90;;;;;;5034985;28;20211;-77
2022/09/20 07:32:44;;;;;;;;;;;10.30;99.90;;;;;;5041653;28;19916;-77
2022/09/20 07:35:09;;;;;;;;;;;10.40;99.90;;;;;;5047695;28;19917;-77
2022/09/20 07:37:35;;;;;;;;;;;10.70;99.90;;;;;;5049721;28;19916;-78
2022/09/20 07:40:02;;;;;;;;;;;10.70;99.90;;;;;;5043862;28;20364;-80
2022/09/20 07:42:28;;;;;;;;;;;10.60;99.90;;;;;;5045499;28;19916;-79
2022/09/20 07:44:54;;;;;;;;;;;10.50;99.90;;;;;;5041609;28;20299;-86
2022/09/20 07:47:20;;;;;;;;;;;10.40;99.90;;;;;;5039995;28;20494;-80
2022/09/20 07:49:45;;;;;;;;;;;10.50;99.90;;;;;;5044287;28;19917;-80
2022/09/20 07:52:13;;;;;;;;;;;10.70;99.90;;;;;;5040113;28;19917;-85
2022/09/20 07:54:39;;;;;;;;;;;10.90;99.90;;;;;;5042218;28;19924;-80
2022/09/20 07:57:04;;;;;;;;;;;11.20;99.90;;;;;;5044766;28;19917;-80
2022/09/20 07:59:30;;;;;;;;;;;11.40;99.90;;;;;;5035695;28;19944;-80
2022/09/20 08:01:57;;;;;;;;;;;11.20;99.90;;;;;;5044968;28;20035;-81
2022/09/20 08:04:23;;;;;;;;;;;11.10;99.90;;;;;;5043012;28;19924;-80
2022/09/20 08:06:48;;;;;;;;;;;10.90;99.90;;;;;;5044049;28;19913;-79
2022/09/20 08:09:14;;;;;;;;;;;10.80;99.90;;;;;;5047946;28;19916;-80
2022/09/20 08:11:40;;;;;;;;;;;10.70;99.90;;;;;;5043125;28;20361;-80
2022/09/20 08:14:07;;;;;;;;;;;10.70;99.90;;;;;;5043610;28;20392;-80
2022/09/20 08:16:39;;;;;;;;;;;10.80;99.90;;;;;;5040945;28;19938;-83
2022/09/20 08:19:04;;;;;;;;;;;10.90;99.90;;;;;;5045412;28;20005;-79
2022/09/20 08:21:31;;;;;;;;;;;11.00;99.90;;;;;;5047128;28;19997;-80
2022/09/20 08:23:57;;;;;;;;;;;11.10;99.90;;;;;;5042900;28;20368;-78
2022/09/20 08:26:23;;;;;;;;;;;11.00;99.90;;;;;;5042647;28;19916;-79
2022/09/20 08:28:53;;;;;;;;;;;11.10;99.90;;;;;;5038323;28;19944;-79
2022/09/20 08:31:20;;;;;;;;;;;11.20;99.90;;;;;;5044989;28;19927;-80
2022/09/20 08:33:46;;;;;;;;;;;11.20;99.90;;;;;;5039226;28;19909;-78
2022/09/20 08:36:13;;;;;;;;;;;11.50;99.90;;;;;;5039964;28;19908;-79
2022/09/20 08:38:39;;;;;;;;;;;11.60;99.90;;;;;;5043940;28;19935;-78
2022/09/20 08:41:11;;;;;;;;;;;11.50;99.90;;;;;;5037171;28;20700;-78
2022/09/20 08:43:41;;;;;;;;;;;11.60;99.90;;;;;;5037821;28;19917;-85
2022/09/20 08:46:11;;;;;;;;;;;11.60;99.90;;;;;;5043510;28;19923;-82
2022/09/20 08:48:36;;;;;;;;;;;11.80;99.90;;;;;;5059002;28;19916;-81
2022/09/20 08:51:03;;;;;;;;;;;11.70;99.90;;;;;;5038874;28;19939;-75
2022/09/20 08:53:29;;;;;;;;;;;12.00;99.90;;;;;;5048902;28;19913;-76
2022/09/20 08:55:58;;;;;;;;;;;12.10;99.90;;;;;;5043646;28;20728;-80
2022/09/20 08:58:27;;;;;;;;;;;12.20;99.90;;;;;;5044551;28;19915;-78
2022/09/20 09:00:54;;;;;;;;;;;11.90;99.90;;;;;;5041687;28;20014;-78
2022/09/20 09:03:20;;;;;;;;;;;11.80;99.90;;;;;;5044222;28;20376;-77
2022/09/20 09:05:46;;;;;;;;;;;12.30;99.90;;;;;;5049339;28;19917;-81
2022/09/20 09:08:20;;;;;;;;;;;12.10;99.90;;;;;;5040848;28;20299;-80
2022/09/20 09:10:51;;;;;;;;;;;12.10;99.90;;;;;;5041567;28;20000;-80
2022/09/20 09:13:22;;;;;;;;;;;12.00;99.90;;;;;;5041350;28;19915;-78
2022/09/20 09:15:51;;;;;;;;;;;12.10;99.90;;;;;;5047820;28;19916;-81
2022/09/20 09:18:17;;;;;;;;;;;12.30;99.90;;;;;;5045157;28;19913;-82
2022/09/20 09:20:45;;;;;;;;;;;12.50;99.90;;;;;;5048949;28;19966;-81
2022/09/20 09:23:24;;;;;;;;;;;12.50;99.90;;;;;;5042403;28;19921;-83
2022/09/20 09:25:49;;;;;;;;;;;12.70;99.90;;;;;;5049688;28;20020;-81
2022/09/20 09:28:16;;;;;;;;;;;12.60;99.90;;;;;;5046032;28;19975;-78
2022/09/20 09:30:43;;;;;;;;;;;12.60;99.90;;;;;;5055370;28;20018;-78
2022/09/20 09:33:28;;;;;;;;;;;12.40;99.90;;;;;;5054388;28;20331;-76
2022/09/20 09:36:02;;;;;;;;;;;11.90;99.90;;;;;;5038831;28;20383;-75
2022/09/20 09:38:39;;;;;;;;;;;12.00;99.90;;;;;;5032445;28;19913;-76
2022/09/20 09:41:07;;;;;;;;;;;11.90;99.90;;;;;;5045750;28;20064;-77
2022/09/20 09:43:36;;;;;;;;;;;12.10;99.90;;;;;;5045017;28;19921;-76
2022/09/20 09:46:20;;;;;;;;;;;12.20;99.90;;;;;;5038552;28;19997;-78
2022/09/20 09:48:48;;;;;;;;;;;11.30;99.90;;;;;;5042860;28;19943;-76
2022/09/20 09:51:18;;;;;;;;;;;11.40;99.90;;;;;;5046796;28;19936;-77
2022/09/20 09:53:44;;;;;;;;;;;11.20;99.90;;;;;;5046119;28;19913;-83
2022/09/20 09:56:22;;;;;;;;;;;11.30;99.90;;;;;;5040566;28;19915;-74
2022/09/20 09:58:55;;;;;;;;;;;11.20;99.90;;;;;;5033762;28;20012;-75
2022/09/20 10:01:28;;;;;;;;;;;11.40;99.90;;;;;;5041233;28;19917;-75
2022/09/20 10:04:13;;;;;;;;;;;11.70;99.90;;;;;;5036431;28;19959;-76
2022/09/20 10:06:45;;;;;;;;;;;12.60;99.90;;;;;;5036601;28;20299;-78
2022/09/20 10:09:18;;;;;;;;;;;12.90;99.90;;;;;;5040445;28;19920;-78
2022/09/20 10:12:01;;;;;;;;;;;12.40;99.90;;;;;;5044179;28;20402;-77
2022/09/20 10:14:33;;;;;;;;;;;12.00;99.90;;;;;;5040463;28;19924;-78
2022/09/20 10:16:58;;;;;;;;;;;12.10;99.90;;;;;;5039371;28;20391;-77
2022/09/20 10:19:39;;;;;;;;;;;12.00;99.90;;;;;;5038695;28;19920;-77
2022/09/20 10:22:05;;;;;;;;;;;12.10;99.90;;;;;;5039167;28;19908;-78
2022/09/20 10:24:58;;;;;;;;;;;12.00;99.90;;;;;;5040632;28;20589;-77
2022/09/20 10:27:23;;;;;;;;;;;13.20;93.90;;;;;;5038470;28;19916;-77
2022/09/20 10:29:52;;;;;;;;;;;12.70;91.60;;;;;;5040569;28;19924;-77
2022/09/20 10:32:32;;;;;;;;;;;12.60;93.50;;;;;;5042784;28;20135;-77
2022/09/20 10:35:00;;;;;;;;;;;12.20;92.40;;;;;;5045564;28;19916;-77
2022/09/20 10:37:45;;;;;;;;;;;12.40;98.40;;;;;;5047627;28;19912;-77
2022/09/20 10:40:13;;;;;;;;;;;12.10;94.60;;;;;;5045206;28;20030;-77
2022/09/20 10:45:30;;;;;;;;;;;12.10;99.20;;;;;;5039313;28;19966;-77
2022/09/20 10:48:01;;;;;;;;;;;11.70;88.00;;;;;;5032796;28;20428;-77
2022/09/20 10:50:35;;;;;;;;;;;11.70;96.90;;;;;;5046895;28;20376;-78
2022/09/20 10:53:00;;;;;;;;;;;11.60;95.30;;;;;;5042150;28;19936;-78
2022/09/20 10:55:26;;;;;;;;;;;11.80;99.90;;;;;;5044717;28;20296;-79
2022/09/20 10:57:57;;;;;;;;;;;11.80;99.90;;;;;;5043745;28;19913;-78
2022/09/20 11:00:31;;;;;;;;;;;11.60;96.20;;;;;;5042038;28;19919;-78
2022/09/20 11:03:10;;;;;;;;;;;11.60;99.90;;;;;;5048249;28;19909;-79
2022/09/20 11:05:36;;;;;;;;;;;11.70;93.00;;;;;;5046350;28;19966;-77
2022/09/20 11:08:31;;;;;;;;;;;11.70;92.80;;;;;;5041051;28;19913;-78
2022/09/20 11:10:58;;;;;;;;;;;11.60;95.30;;;;;;5037954;28;19940;-78
2022/09/20 11:13:33;;;;;;;;;;;12.00;90.20;;;;;;5039073;28;19917;-78
2022/09/20 11:16:04;;;;;;;;;;;12.50;90.50;;;;;;5041363;28;19944;-79
2022/09/20 11:18:37;;;;;;;;;;;12.60;92.10;;;;;;5038626;28;19913;-78
2022/09/20 11:21:06;;;;;;;;;;;12.80;80.30;;;;;;5036939;28;20364;-78
2022/09/20 11:23:39;;;;;;;;;;;12.60;78.00;;;;;;5042567;28;20568;-78
2022/09/20 11:26:24;;;;;;;;;;;12.60;79.10;;;;;;5037530;28;19921;-78
2022/09/20 11:29:01;;;;;;;;;;;12.60;77.90;;;;;;5031159;28;20224;-80
2022/09/20 11:31:35;;;;;;;;;;;12.80;80.80;;;;;;5033712;28;19925;-77
2022/09/20 11:34:12;;;;;;;;;;;13.00;74.80;;;;;;5041283;28;20070;-77
2022/09/20 11:36:52;;;;;;;;;;;13.20;75.80;;;;;;5045969;28;19913;-77
2022/09/20 11:39:24;;;;;;;;;;;13.50;73.20;;;;;;5040371;28;19987;-78
2022/09/20 11:41:50;;;;;;;;;;;13.70;73.60;;;;;;5035474;28;19920;-83
2022/09/20 11:44:18;;;;;;;;;;;13.90;69.00;;;;;;5044563;28;20016;-76
2022/09/20 11:46:46;;;;;;;;;;;14.00;72.30;;;;;;5045307;28;19939;-76
2022/09/20 11:49:17;;;;;;;;;;;14.20;68.50;;;;;;5046505;28;19920;-78
2022/09/20 11:51:51;;;;;;;;;;;14.40;76.70;;;;;;5044653;28;20050;-77
2022/09/20 11:54:27;;;;;;;;;;;14.30;69.00;;;;;;5041609;28;19913;-79
2022/09/20 11:56:55;;;;;;;;;;;14.40;69.20;;;;;;5039540;28;19959;-78
2022/09/20 11:59:33;;;;;;;;;;;14.10;67.40;;;;;;5045593;28;20276;-79
2022/09/20 12:02:00;;;;;;;;;;;14.30;66.40;;;;;;5031759;28;20308;-79
2022/09/20 12:04:28;;;;;;;;;;;14.90;65.70;;;;;;5044082;28;19908;-79
2022/09/20 12:07:02;;;;;;;;;;;15.30;63.10;;;;;;5031186;28;19920;-80
2022/09/20 12:09:32;;;;;;;;;;;16.70;62.40;;;;;;5042579;28;20003;-79
2022/09/20 12:11:58;;;;;;;;;;;16.80;52.70;;;;;;5042661;28;19913;-76
2022/09/20 12:14:26;;;;;;;;;;;17.30;51.50;;;;;;5041207;28;19913;-77
2022/09/20 12:16:52;;;;;;;;;;;17.60;55.20;;;;;;5044324;28;20318;-76
2022/09/20 12:19:20;;;;;;;;;;;18.30;46.50;;;;;;5041200;28;19921;-78
2022/09/20 12:21:57;;;;;;;;;;;17.60;47.20;;;;;;5047595;28;19912;-76
2022/09/20 12:24:24;;;;;;;;;;;16.70;50.20;;;;;;5048100;28;19909;-77
2022/09/20 12:26:50;;;;;;;;;;;17.30;50.40;;;;;;5047403;28;19915;-78
2022/09/20 12:29:22;;;;;;;;;;;18.70;43.20;;;;;;5040552;28;19913;-76
2022/09/20 12:31:48;;;;;;;;;;;18.50;42.00;;;;;;5037907;28;19917;-89
2022/09/20 12:34:14;;;;;;;;;;;18.70;45.10;;;;;;5042156;28;19952;-91
2022/09/20 12:36:43;;;;;;;;;;;17.60;44.30;;;;;;5041671;28;20039;-91
2022/09/20 12:39:11;;;;;;;;;;;16.50;52.70;;;;;;5050828;28;19971;-88
2022/09/20 12:41:44;;;;;;;;;;;17.50;50.20;;;;;;5043147;28;19923;-87
2022/09/20 12:44:33;;;;;;;;;;;17.60;45.60;;;;;;5037515;28;19917;-87
2022/09/20 12:47:00;;;;;;;;;;;18.00;47.00;;;;;;5044897;28;20276;-85
2022/09/20 12:55:31;;;;;;;;;;;15.90;51.70;;;;;;5046881;28;19920;-90
2022/09/20 12:57:57;;;;;;;;;;;15.60;55.00;;;;;;5052560;28;19944;-88
2022/09/20 13:00:39;;;;;;;;;;;15.70;58.80;;;;;;5044148;28;19967;-88
2022/09/20 13:03:13;;;;;;;;;;;15.40;57.70;;;;;;5055635;28;19955;-84
2022/09/20 13:05:46;;;;;;;;;;;15.40;57.70;;;;;;5034269;28;19912;-84
2022/09/20 13:08:14;;;;;;;;;;;15.50;56.10;;;;;;5041915;28;19904;-84
2022/09/20 13:10:41;;;;;;;;;;;15.50;58.70;;;;;;5037631;28;19913;-82
2022/09/20 13:13:12;;;;;;;;;;;15.30;60.10;;;;;;5033701;28;19921;-80
2022/09/20 13:15:39;;;;;;;;;;;14.10;62.40;;;;;;5053605;28;19939;-79
2022/09/20 13:18:05;;;;;;;;;;;14.80;62.50;;;;;;5048280;28;19916;-79
2022/09/20 13:20:33;;;;;;;;;;;17.00;52.00;;;;;;5046337;28;19940;-81
2022/09/20 13:23:00;;;;;;;;;;;17.70;48.00;;;;;;5036891;28;20311;-81
2022/09/20 13:25:27;;;;;;;;;;;19.60;41.50;;;;;;5043423;28;19917;-79
2022/09/20 13:27:55;;;;;;;;;;;20.20;43.00;;;;;;5050314;28;19913;-81
2022/09/20 13:30:31;;;;;;;;;;;20.40;38.50;;;;;;5044202;28;20376;-80
2022/09/20 13:33:13;;;;;;;;;;;20.70;34.10;;;;;;5039815;28;20004;-80
2022/09/20 13:35:40;;;;;;;;;;;21.30;35.40;;;;;;5042412;28;19991;-80
2022/09/20 13:38:06;;;;;;;;;;;20.10;34.10;;;;;;5045983;28;19939;-81
2022/09/20 13:40:34;;;;;;;;;;;19.20;33.50;;;;;;5046554;28;19924;-82
2022/09/20 13:43:01;;;;;;;;;;;18.70;37.70;;;;;;5036378;28;20425;-81
2022/09/20 13:45:27;;;;;;;;;;;21.30;31.80;;;;;;5033895;28;20641;-81
2022/09/20 13:47:54;;;;;;;;;;;20.20;32.70;;;;;;5041897;28;20241;-80
2022/09/20 13:50:27;;;;;;;;;;;18.20;35.90;;;;;;5048816;28;19909;-80
2022/09/20 13:53:00;;;;;;;;;;;16.70;40.30;;;;;;5046046;28;19909;-80
2022/09/20 13:55:31;;;;;;;;;;;16.80;41.20;;;;;;5039055;28;19924;-80
2022/09/20 13:58:01;;;;;;;;;;;19.00;38.40;;;;;;5047490;28;20695;-81
2022/09/20 14:00:28;;;;;;;;;;;20.40;35.20;;;;;;5043981;28;19936;-79
2022/09/20 14:02:54;;;;;;;;;;;21.40;31.30;;;;;;5040776;28;19913;-79
2022/09/20 14:05:22;;;;;;;;;;;21.50;29.60;;;;;;5041920;28;20407;-81
2022/09/20 14:07:48;;;;;;;;;;;21.60;31.10;;;;;;5049221;28;19923;-78
2022/09/20 14:10:35;;;;;;;;;;;22.90;29.60;;;;;;5041918;28;20241;-78
2022/09/20 14:13:03;;;;;;;;;;;24.00;27.20;;;;;;5046035;28;20269;-80
2022/09/20 14:15:40;;;;;;;;;;;25.20;25.40;;;;;;5042921;28;19909;-80
2022/09/20 14:18:08;;;;;;;;;;;24.80;26.20;;;;;;5046548;28;19986;-79
2022/09/20 14:20:33;;;;;;;;;;;23.40;26.80;;;;;;5035548;28;19998;-81
2022/09/20 14:22:59;;;;;;;;;;;22.10;27.80;;;;;;5037806;28;20549;-80
2022/09/20 14:25:25;;;;;;;;;;;21.20;29.80;;;;;;5047249;28;19959;-79
2022/09/20 14:28:16;;;;;;;;;;;19.60;33.50;;;;;;5025261;28;19913;-80
2022/09/20 14:30:43;;;;;;;;;;;18.50;36.00;;;;;;5044999;28;19980;-78
2022/09/20 14:33:13;;;;;;;;;;;18.60;37.70;;;;;;5044659;28;19962;-79
2022/09/20 14:35:44;;;;;;;;;;;18.60;37.20;;;;;;5044166;28;19936;-77
2022/09/20 14:38:13;;;;;;;;;;;20.90;35.50;;;;;;5036014;28;19943;-78
2022/09/20 14:40:46;;;;;;;;;;;20.10;35.30;;;;;;5039299;28;19917;-78
2022/09/20 14:43:21;;;;;;;;;;;18.90;37.10;;;;;;5046786;28;20392;-78
2022/09/20 14:45:51;;;;;;;;;;;18.10;40.40;;;;;;5033736;28;19913;-77
2022/09/20 14:48:16;;;;;;;;;;;18.10;38.90;;;;;;5034454;28;19913;-77
2022/09/20 14:50:43;;;;;;;;;;;17.60;40.30;;;;;;5029468;28;19909;-78
2022/09/20 14:53:09;;;;;;;;;;;17.00;42.50;;;;;;5030826;28;19916;-78
2022/09/20 14:55:36;;;;;;;;;;;16.40;43.30;;;;;;5030647;28;19913;-78
2022/09/20 14:58:05;;;;;;;;;;;17.00;42.80;;;;;;5041105;28;19915;-78
2022/09/20 15:00:45;;;;;;;;;;;17.80;40.80;;;;;;5026021;28;19974;-77
2022/09/20 15:03:11;;;;;;;;;;;18.20;39.40;;;;;;5033315;28;19913;-78
2022/09/20 15:05:37;;;;;;;;;;;17.30;43.80;;;;;;5038219;28;19917;-78